sensor_id;sensor_type;location;lat;lon;timestamp;P1;durP1;ratioP1;P2;durP2;ratioP2
1140;SDS011;559;48.628;8.924;2023-06-14T00:00:06;6.60;;;6.00;;
1140;SDS011;559;48.628;8.924;2023-06-14T00:02:34;5.82;;;5.32;;
1140;SDS011;559;48.628;8.924;2023-06-14T00:05:00;5.63;;;5.32;;
1140;SDS011;559;48.628;8.924;2023-06-14T00:07:33;5.90;;;5.38;;
1140;SDS011;559;48.628;8.924;2023-06-14T00:10:00;5.87;;;5.10;;
1140;SDS011;559;48.628;8.924;2023-06-14T00:12:28;6.30;;;4.90;;
1140;SDS011;559;48.628;8.924;2023-06-14T00:14:54;5.28;;;4.75;;
1140;SDS011;559;48.628;8.924;2023-06-14T00:17:21;4.77;;;4.37;;
1140;SDS011;559;48.628;8.924;2023-06-14T00:19:48;7.47;;;6.43;;
1140;SDS011;559;48.628;8.924;2023-06-14T00:22:14;7.32;;;6.82;;
1140;SDS011;559;48.628;8.924;2023-06-14T00:24:41;8.88;;;8.18;;
1140;SDS011;559;48.628;8.924;2023-06-14T00:27:07;14.10;;;13.30;;
1140;SDS011;559;48.628;8.924;2023-06-14T00:29:36;26.42;;;25.33;;
1140;SDS011;559;48.628;8.924;2023-06-14T00:32:03;58.33;;;56.42;;
1140;SDS011;559;48.628;8.924;2023-06-14T00:34:30;83.22;;;80.43;;
1140;SDS011;559;48.628;8.924;2023-06-14T00:36:56;96.07;;;92.88;;
1140;SDS011;559;48.628;8.924;2023-06-14T00:39:23;93.15;;;90.20;;
1140;SDS011;559;48.628;8.924;2023-06-14T00:41:49;90.88;;;88.15;;
1140;SDS011;559;48.628;8.924;2023-06-14T00:44:16;80.95;;;78.50;;
1140;SDS011;559;48.628;8.924;2023-06-14T00:46:44;67.70;;;65.32;;
1140;SDS011;559;48.628;8.924;2023-06-14T00:49:11;53.15;;;51.40;;
1140;SDS011;559;48.628;8.924;2023-06-14T00:51:38;38.65;;;37.35;;
1140;SDS011;559;48.628;8.924;2023-06-14T00:54:05;33.58;;;32.28;;
1140;SDS011;559;48.628;8.924;2023-06-14T00:56:31;26.67;;;25.58;;
1140;SDS011;559;48.628;8.924;2023-06-14T00:58:58;23.17;;;22.17;;
1140;SDS011;559;48.628;8.924;2023-06-14T01:01:24;29.80;;;28.80;;
1140;SDS011;559;48.628;8.924;2023-06-14T01:03:55;30.85;;;29.75;;
1140;SDS011;559;48.628;8.924;2023-06-14T01:06:23;25.02;;;23.77;;
1140;SDS011;559;48.628;8.924;2023-06-14T01:08:56;25.40;;;24.50;;
1140;SDS011;559;48.628;8.924;2023-06-14T01:11:28;28.10;;;27.10;;
1140;SDS011;559;48.628;8.924;2023-06-14T01:13:58;22.67;;;21.67;;
1140;SDS011;559;48.628;8.924;2023-06-14T01:16:26;17.40;;;16.50;;
1140;SDS011;559;48.628;8.924;2023-06-14T01:18:52;12.88;;;12.18;;
1140;SDS011;559;48.628;8.924;2023-06-14T01:21:21;10.80;;;10.20;;
1140;SDS011;559;48.628;8.924;2023-06-14T01:23:50;9.63;;;9.13;;
1140;SDS011;559;48.628;8.924;2023-06-14T01:26:18;12.10;;;11.30;;
1140;SDS011;559;48.628;8.924;2023-06-14T01:28:45;15.60;;;14.80;;
1140;SDS011;559;48.628;8.924;2023-06-14T01:31:17;20.05;;;19.23;;
1140;SDS011;559;48.628;8.924;2023-06-14T01:33:44;27.88;;;26.58;;
1140;SDS011;559;48.628;8.924;2023-06-14T01:36:11;36.83;;;35.47;;
1140;SDS011;559;48.628;8.924;2023-06-14T01:38:38;47.53;;;45.88;;
1140;SDS011;559;48.628;8.924;2023-06-14T01:41:07;59.72;;;57.83;;
1140;SDS011;559;48.628;8.924;2023-06-14T01:43:33;60.42;;;58.60;;
1140;SDS011;559;48.628;8.924;2023-06-14T01:46:00;58.80;;;56.88;;
1140;SDS011;559;48.628;8.924;2023-06-14T01:48:27;46.53;;;44.95;;
1140;SDS011;559;48.628;8.924;2023-06-14T01:50:54;46.55;;;44.95;;
1140;SDS011;559;48.628;8.924;2023-06-14T01:53:20;38.40;;;37.00;;
1140;SDS011;559;48.628;8.924;2023-06-14T01:55:47;37.05;;;35.67;;
1140;SDS011;559;48.628;8.924;2023-06-14T01:58:15;40.45;;;38.78;;
1140;SDS011;559;48.628;8.924;2023-06-14T02:00:42;38.38;;;37.00;;
1140;SDS011;559;48.628;8.924;2023-06-14T02:03:10;37.25;;;36.03;;
1140;SDS011;559;48.628;8.924;2023-06-14T02:05:37;34.15;;;32.75;;
1140;SDS011;559;48.628;8.924;2023-06-14T02:08:04;37.25;;;35.45;;
1140;SDS011;559;48.628;8.924;2023-06-14T02:10:30;42.78;;;41.33;;
1140;SDS011;559;48.628;8.924;2023-06-14T02:12:57;44.33;;;42.45;;
1140;SDS011;559;48.628;8.924;2023-06-14T02:15:25;44.72;;;43.03;;
1140;SDS011;559;48.628;8.924;2023-06-14T02:17:58;43.38;;;41.78;;
1140;SDS011;559;48.628;8.924;2023-06-14T02:20:25;35.83;;;34.63;;
1140;SDS011;559;48.628;8.924;2023-06-14T02:22:52;44.38;;;42.78;;
1140;SDS011;559;48.628;8.924;2023-06-14T02:25:18;43.45;;;42.03;;
1140;SDS011;559;48.628;8.924;2023-06-14T02:27:45;47.22;;;45.58;;
1140;SDS011;559;48.628;8.924;2023-06-14T02:30:12;39.05;;;37.63;;
1140;SDS011;559;48.628;8.924;2023-06-14T02:32:41;31.15;;;29.75;;
1140;SDS011;559;48.628;8.924;2023-06-14T02:35:08;26.45;;;25.55;;
1140;SDS011;559;48.628;8.924;2023-06-14T02:37:35;37.33;;;36.05;;
1140;SDS011;559;48.628;8.924;2023-06-14T02:40:02;48.65;;;47.05;;
1140;SDS011;559;48.628;8.924;2023-06-14T02:42:29;54.83;;;53.08;;
1140;SDS011;559;48.628;8.924;2023-06-14T02:44:56;62.33;;;60.33;;
1140;SDS011;559;48.628;8.924;2023-06-14T02:47:22;63.42;;;61.53;;
1140;SDS011;559;48.628;8.924;2023-06-14T02:49:51;67.90;;;65.72;;
1140;SDS011;559;48.628;8.924;2023-06-14T02:52:17;69.43;;;67.15;;
1140;SDS011;559;48.628;8.924;2023-06-14T02:54:45;63.40;;;61.35;;
1140;SDS011;559;48.628;8.924;2023-06-14T02:57:12;68.78;;;66.68;;
1140;SDS011;559;48.628;8.924;2023-06-14T02:59:38;70.07;;;67.70;;
1140;SDS011;559;48.628;8.924;2023-06-14T03:02:05;69.97;;;67.82;;
1140;SDS011;559;48.628;8.924;2023-06-14T03:04:32;62.58;;;60.58;;
1140;SDS011;559;48.628;8.924;2023-06-14T03:07:03;58.67;;;56.78;;
1140;SDS011;559;48.628;8.924;2023-06-14T03:09:34;64.35;;;62.15;;
1140;SDS011;559;48.628;8.924;2023-06-14T03:12:01;67.55;;;65.07;;
1140;SDS011;559;48.628;8.924;2023-06-14T03:14:28;66.75;;;64.55;;
1140;SDS011;559;48.628;8.924;2023-06-14T03:16:55;73.05;;;70.60;;
1140;SDS011;559;48.628;8.924;2023-06-14T03:19:22;65.38;;;63.28;;
1140;SDS011;559;48.628;8.924;2023-06-14T03:21:49;68.13;;;66.00;;
1140;SDS011;559;48.628;8.924;2023-06-14T03:24:16;57.92;;;55.70;;
1140;SDS011;559;48.628;8.924;2023-06-14T03:26:43;67.47;;;65.30;;
1140;SDS011;559;48.628;8.924;2023-06-14T03:29:10;73.00;;;70.78;;
1140;SDS011;559;48.628;8.924;2023-06-14T03:31:39;77.57;;;74.57;;
1140;SDS011;559;48.628;8.924;2023-06-14T03:34:07;72.65;;;70.32;;
1140;SDS011;559;48.628;8.924;2023-06-14T03:36:33;68.70;;;66.10;;
1140;SDS011;559;48.628;8.924;2023-06-14T03:39:00;74.60;;;72.32;;
1140;SDS011;559;48.628;8.924;2023-06-14T03:41:28;70.20;;;67.80;;
1140;SDS011;559;48.628;8.924;2023-06-14T03:43:54;71.53;;;69.40;;
1140;SDS011;559;48.628;8.924;2023-06-14T03:46:21;74.22;;;71.57;;
1140;SDS011;559;48.628;8.924;2023-06-14T03:48:48;80.60;;;78.03;;
1140;SDS011;559;48.628;8.924;2023-06-14T03:51:14;84.60;;;82.03;;
1140;SDS011;559;48.628;8.924;2023-06-14T03:53:41;97.90;;;94.80;;
1140;SDS011;559;48.628;8.924;2023-06-14T03:56:07;101.72;;;98.50;;
1140;SDS011;559;48.628;8.924;2023-06-14T03:58:35;100.10;;;97.03;;
1140;SDS011;559;48.628;8.924;2023-06-14T04:01:02;94.45;;;91.35;;
1140;SDS011;559;48.628;8.924;2023-06-14T04:03:29;94.70;;;91.63;;
1140;SDS011;559;48.628;8.924;2023-06-14T04:05:55;93.97;;;91.07;;
1140;SDS011;559;48.628;8.924;2023-06-14T04:08:24;95.40;;;92.50;;
1140;SDS011;559;48.628;8.924;2023-06-14T04:10:51;94.90;;;91.80;;
1140;SDS011;559;48.628;8.924;2023-06-14T04:13:17;81.78;;;79.28;;
1140;SDS011;559;48.628;8.924;2023-06-14T04:15:45;70.90;;;68.60;;
1140;SDS011;559;48.628;8.924;2023-06-14T04:18:12;64.45;;;62.42;;
1140;SDS011;559;48.628;8.924;2023-06-14T04:20:39;65.57;;;63.47;;
1140;SDS011;559;48.628;8.924;2023-06-14T04:23:11;81.55;;;79.00;;
1140;SDS011;559;48.628;8.924;2023-06-14T04:25:39;85.32;;;82.65;;
1140;SDS011;559;48.628;8.924;2023-06-14T04:28:10;93.47;;;90.57;;
1140;SDS011;559;48.628;8.924;2023-06-14T04:30:37;105.50;;;101.85;;
1140;SDS011;559;48.628;8.924;2023-06-14T04:33:07;114.30;;;110.40;;
1140;SDS011;559;48.628;8.924;2023-06-14T04:35:35;115.32;;;111.18;;
1140;SDS011;559;48.628;8.924;2023-06-14T04:38:02;109.00;;;105.40;;
1140;SDS011;559;48.628;8.924;2023-06-14T04:40:30;94.10;;;91.13;;
1140;SDS011;559;48.628;8.924;2023-06-14T04:42:56;91.47;;;88.60;;
1140;SDS011;559;48.628;8.924;2023-06-14T04:45:23;73.07;;;70.65;;
1140;SDS011;559;48.628;8.924;2023-06-14T04:47:58;66.47;;;64.00;;
1140;SDS011;559;48.628;8.924;2023-06-14T04:50:26;52.25;;;50.15;;
1140;SDS011;559;48.628;8.924;2023-06-14T04:52:54;37.88;;;36.47;;
1140;SDS011;559;48.628;8.924;2023-06-14T04:55:22;28.45;;;27.15;;
1140;SDS011;559;48.628;8.924;2023-06-14T04:57:49;25.90;;;24.83;;
1140;SDS011;559;48.628;8.924;2023-06-14T05:00:18;59.50;;;57.30;;
1140;SDS011;559;48.628;8.924;2023-06-14T05:02:45;50.08;;;48.22;;
1140;SDS011;559;48.628;8.924;2023-06-14T05:05:17;56.33;;;54.13;;
1140;SDS011;559;48.628;8.924;2023-06-14T05:07:46;64.85;;;62.35;;
1140;SDS011;559;48.628;8.924;2023-06-14T05:10:12;60.05;;;57.97;;
1140;SDS011;559;48.628;8.924;2023-06-14T05:12:39;50.15;;;48.30;;
1140;SDS011;559;48.628;8.924;2023-06-14T05:15:06;54.60;;;52.78;;
1140;SDS011;559;48.628;8.924;2023-06-14T05:17:33;57.17;;;55.28;;
1140;SDS011;559;48.628;8.924;2023-06-14T05:20:01;49.78;;;47.97;;
1140;SDS011;559;48.628;8.924;2023-06-14T05:22:28;151.82;;;145.02;;
1140;SDS011;559;48.628;8.924;2023-06-14T05:24:56;132.73;;;126.45;;
1140;SDS011;559;48.628;8.924;2023-06-14T05:27:22;112.20;;;108.13;;
1140;SDS011;559;48.628;8.924;2023-06-14T05:29:50;119.73;;;115.20;;
1140;SDS011;559;48.628;8.924;2023-06-14T05:32:20;103.97;;;100.37;;
1140;SDS011;559;48.628;8.924;2023-06-14T05:34:47;98.20;;;95.20;;
1140;SDS011;559;48.628;8.924;2023-06-14T05:37:13;76.23;;;73.93;;
1140;SDS011;559;48.628;8.924;2023-06-14T05:39:40;62.17;;;60.00;;
1140;SDS011;559;48.628;8.924;2023-06-14T05:42:08;37.60;;;35.93;;
1140;SDS011;559;48.628;8.924;2023-06-14T05:44:34;39.47;;;37.87;;
1140;SDS011;559;48.628;8.924;2023-06-14T05:47:01;66.70;;;64.37;;
1140;SDS011;559;48.628;8.924;2023-06-14T05:49:27;46.47;;;44.10;;
1140;SDS011;559;48.628;8.924;2023-06-14T05:51:54;22.00;;;19.80;;
1140;SDS011;559;48.628;8.924;2023-06-14T05:54:21;25.43;;;23.10;;
1140;SDS011;559;48.628;8.924;2023-06-14T05:56:47;19.10;;;16.93;;
1140;SDS011;559;48.628;8.924;2023-06-14T05:59:15;17.00;;;10.90;;
1140;SDS011;559;48.628;8.924;2023-06-14T06:01:41;19.80;;;10.70;;
1140;SDS011;559;48.628;8.924;2023-06-14T06:04:08;9.00;;;6.50;;
1140;SDS011;559;48.628;8.924;2023-06-14T06:06:35;11.43;;;10.25;;
1140;SDS011;559;48.628;8.924;2023-06-14T06:09:01;10.73;;;9.20;;
1140;SDS011;559;48.628;8.924;2023-06-14T06:11:29;11.23;;;7.20;;
1140;SDS011;559;48.628;8.924;2023-06-14T06:13:56;8.17;;;7.37;;
1140;SDS011;559;48.628;8.924;2023-06-14T06:16:24;8.23;;;7.37;;
1140;SDS011;559;48.628;8.924;2023-06-14T06:18:50;11.30;;;7.13;;
1140;SDS011;559;48.628;8.924;2023-06-14T06:21:17;9.00;;;7.53;;
1140;SDS011;559;48.628;8.924;2023-06-14T06:23:43;9.30;;;8.40;;
1140;SDS011;559;48.628;8.924;2023-06-14T06:26:10;8.60;;;7.80;;
1140;SDS011;559;48.628;8.924;2023-06-14T06:28:36;14.40;;;7.03;;
1140;SDS011;559;48.628;8.924;2023-06-14T06:31:03;8.20;;;6.30;;
1140;SDS011;559;48.628;8.924;2023-06-14T06:33:31;7.97;;;7.20;;
1140;SDS011;559;48.628;8.924;2023-06-14T06:35:58;6.90;;;6.30;;
1140;SDS011;559;48.628;8.924;2023-06-14T06:38:24;6.80;;;6.03;;
1140;SDS011;559;48.628;8.924;2023-06-14T06:40:51;9.17;;;5.87;;
1140;SDS011;559;48.628;8.924;2023-06-14T06:43:19;5.80;;;5.20;;
1140;SDS011;559;48.628;8.924;2023-06-14T06:45:45;5.50;;;5.00;;
1140;SDS011;559;48.628;8.924;2023-06-14T06:48:12;6.57;;;5.53;;
1140;SDS011;559;48.628;8.924;2023-06-14T06:50:40;4.90;;;4.47;;
1140;SDS011;559;48.628;8.924;2023-06-14T06:53:06;9.27;;;5.70;;
1140;SDS011;559;48.628;8.924;2023-06-14T06:55:33;6.30;;;5.47;;
1140;SDS011;559;48.628;8.924;2023-06-14T06:57:59;7.90;;;5.30;;
1140;SDS011;559;48.628;8.924;2023-06-14T07:00:26;5.60;;;5.10;;
1140;SDS011;559;48.628;8.924;2023-06-14T07:02:52;5.20;;;4.80;;
1140;SDS011;559;48.628;8.924;2023-06-14T07:05:20;4.70;;;4.20;;
1140;SDS011;559;48.628;8.924;2023-06-14T07:07:48;9.70;;;5.17;;
1140;SDS011;559;48.628;8.924;2023-06-14T07:10:14;7.10;;;5.33;;
1140;SDS011;559;48.628;8.924;2023-06-14T07:12:41;7.53;;;6.03;;
1140;SDS011;559;48.628;8.924;2023-06-14T07:15:08;11.73;;;5.40;;
1140;SDS011;559;48.628;8.924;2023-06-14T07:17:36;7.87;;;4.87;;
1140;SDS011;559;48.628;8.924;2023-06-14T07:20:02;6.40;;;5.37;;
1140;SDS011;559;48.628;8.924;2023-06-14T07:22:33;9.20;;;4.50;;
1140;SDS011;559;48.628;8.924;2023-06-14T07:25:01;6.10;;;4.87;;
1140;SDS011;559;48.628;8.924;2023-06-14T07:27:27;5.47;;;4.80;;
1140;SDS011;559;48.628;8.924;2023-06-14T07:29:54;6.83;;;4.90;;
1140;SDS011;559;48.628;8.924;2023-06-14T07:32:21;5.10;;;4.60;;
1140;SDS011;559;48.628;8.924;2023-06-14T07:34:47;7.90;;;5.40;;
1140;SDS011;559;48.628;8.924;2023-06-14T07:37:14;8.77;;;5.23;;
1140;SDS011;559;48.628;8.924;2023-06-14T07:39:40;6.33;;;5.30;;
1140;SDS011;559;48.628;8.924;2023-06-14T07:42:08;8.00;;;4.40;;
1140;SDS011;559;48.628;8.924;2023-06-14T07:44:35;6.47;;;4.43;;
1140;SDS011;559;48.628;8.924;2023-06-14T07:47:02;5.43;;;4.63;;
1140;SDS011;559;48.628;8.924;2023-06-14T07:49:28;5.97;;;4.23;;
1140;SDS011;559;48.628;8.924;2023-06-14T07:51:55;5.87;;;4.93;;
1140;SDS011;559;48.628;8.924;2023-06-14T07:54:21;5.90;;;4.40;;
1140;SDS011;559;48.628;8.924;2023-06-14T07:56:50;12.30;;;4.80;;
1140;SDS011;559;48.628;8.924;2023-06-14T07:59:18;5.50;;;4.70;;
1140;SDS011;559;48.628;8.924;2023-06-14T08:01:45;5.17;;;3.87;;
1140;SDS011;559;48.628;8.924;2023-06-14T08:04:12;6.07;;;4.30;;
1140;SDS011;559;48.628;8.924;2023-06-14T08:06:38;6.03;;;4.07;;
1140;SDS011;559;48.628;8.924;2023-06-14T08:09:05;7.00;;;5.23;;
1140;SDS011;559;48.628;8.924;2023-06-14T08:11:31;5.90;;;5.10;;
1140;SDS011;559;48.628;8.924;2023-06-14T08:13:58;6.47;;;3.83;;
1140;SDS011;559;48.628;8.924;2023-06-14T08:16:26;5.57;;;3.90;;
1140;SDS011;559;48.628;8.924;2023-06-14T08:18:52;12.63;;;4.80;;
1140;SDS011;559;48.628;8.924;2023-06-14T08:21:19;4.50;;;4.10;;
1140;SDS011;559;48.628;8.924;2023-06-14T08:23:45;7.23;;;4.40;;
1140;SDS011;559;48.628;8.924;2023-06-14T08:26:12;4.83;;;4.43;;
1140;SDS011;559;48.628;8.924;2023-06-14T08:28:39;5.40;;;4.70;;
1140;SDS011;559;48.628;8.924;2023-06-14T08:31:05;7.63;;;5.20;;
1140;SDS011;559;48.628;8.924;2023-06-14T08:33:33;5.00;;;4.47;;
1140;SDS011;559;48.628;8.924;2023-06-14T08:36:00;4.67;;;4.27;;
1140;SDS011;559;48.628;8.924;2023-06-14T08:38:26;4.40;;;3.70;;
1140;SDS011;559;48.628;8.924;2023-06-14T08:40:53;5.00;;;4.33;;
1140;SDS011;559;48.628;8.924;2023-06-14T08:43:23;4.13;;;3.73;;
1140;SDS011;559;48.628;8.924;2023-06-14T08:45:50;5.43;;;5.00;;
1140;SDS011;559;48.628;8.924;2023-06-14T08:48:19;4.60;;;4.20;;
1140;SDS011;559;48.628;8.924;2023-06-14T08:50:49;4.83;;;4.20;;
1140;SDS011;559;48.628;8.924;2023-06-14T08:53:16;5.63;;;5.03;;
1140;SDS011;559;48.628;8.924;2023-06-14T08:55:44;7.90;;;4.50;;
1140;SDS011;559;48.628;8.924;2023-06-14T08:58:12;8.53;;;4.73;;
1140;SDS011;559;48.628;8.924;2023-06-14T09:00:40;5.30;;;4.77;;
1140;SDS011;559;48.628;8.924;2023-06-14T09:03:07;6.00;;;5.10;;
1140;SDS011;559;48.628;8.924;2023-06-14T09:05:38;6.23;;;4.50;;
1140;SDS011;559;48.628;8.924;2023-06-14T09:08:06;11.83;;;5.00;;
1140;SDS011;559;48.628;8.924;2023-06-14T09:10:33;5.77;;;4.90;;
1140;SDS011;559;48.628;8.924;2023-06-14T09:13:02;5.23;;;4.53;;
1140;SDS011;559;48.628;8.924;2023-06-14T09:15:29;5.77;;;4.93;;
1140;SDS011;559;48.628;8.924;2023-06-14T09:17:56;5.53;;;5.03;;
1140;SDS011;559;48.628;8.924;2023-06-14T09:20:23;6.13;;;5.20;;
1140;SDS011;559;48.628;8.924;2023-06-14T09:22:50;6.10;;;4.83;;
1140;SDS011;559;48.628;8.924;2023-06-14T09:25:18;6.68;;;4.90;;
1140;SDS011;559;48.628;8.924;2023-06-14T09:27:45;11.80;;;5.27;;
1140;SDS011;559;48.628;8.924;2023-06-14T09:30:11;6.70;;;5.20;;
1140;SDS011;559;48.628;8.924;2023-06-14T09:32:39;5.90;;;4.77;;
1140;SDS011;559;48.628;8.924;2023-06-14T09:35:06;6.30;;;5.53;;
1140;SDS011;559;48.628;8.924;2023-06-14T09:37:33;5.10;;;4.60;;
1140;SDS011;559;48.628;8.924;2023-06-14T09:40:00;5.07;;;4.57;;
1140;SDS011;559;48.628;8.924;2023-06-14T09:42:28;5.43;;;4.93;;
1140;SDS011;559;48.628;8.924;2023-06-14T09:44:55;5.50;;;4.80;;
1140;SDS011;559;48.628;8.924;2023-06-14T09:47:22;4.70;;;4.10;;
1140;SDS011;559;48.628;8.924;2023-06-14T09:49:50;7.93;;;4.80;;
1140;SDS011;559;48.628;8.924;2023-06-14T09:52:17;6.30;;;4.83;;
1140;SDS011;559;48.628;8.924;2023-06-14T09:54:45;4.50;;;4.10;;
1140;SDS011;559;48.628;8.924;2023-06-14T09:57:13;4.80;;;4.40;;
1140;SDS011;559;48.628;8.924;2023-06-14T09:59:42;5.07;;;4.63;;
1140;SDS011;559;48.628;8.924;2023-06-14T10:02:11;4.63;;;4.17;;
1140;SDS011;559;48.628;8.924;2023-06-14T10:04:43;8.03;;;3.87;;
1140;SDS011;559;48.628;8.924;2023-06-14T10:07:13;4.40;;;4.00;;
1140;SDS011;559;48.628;8.924;2023-06-14T10:09:40;5.67;;;5.17;;
1140;SDS011;559;48.628;8.924;2023-06-14T10:12:10;5.50;;;5.00;;
1140;SDS011;559;48.628;8.924;2023-06-14T10:14:42;5.57;;;4.73;;
1140;SDS011;559;48.628;8.924;2023-06-14T10:17:08;5.73;;;5.10;;
1140;SDS011;559;48.628;8.924;2023-06-14T10:19:37;4.37;;;3.97;;
1140;SDS011;559;48.628;8.924;2023-06-14T10:22:09;6.43;;;4.70;;
1140;SDS011;559;48.628;8.924;2023-06-14T10:24:38;5.37;;;4.87;;
1140;SDS011;559;48.628;8.924;2023-06-14T10:27:07;6.57;;;5.07;;
1140;SDS011;559;48.628;8.924;2023-06-14T10:29:38;5.53;;;4.20;;
1140;SDS011;559;48.628;8.924;2023-06-14T10:32:31;5.07;;;4.50;;
1140;SDS011;559;48.628;8.924;2023-06-14T10:34:59;4.47;;;4.00;;
1140;SDS011;559;48.628;8.924;2023-06-14T10:37:26;6.37;;;4.93;;
1140;SDS011;559;48.628;8.924;2023-06-14T10:39:53;6.23;;;5.10;;
1140;SDS011;559;48.628;8.924;2023-06-14T10:42:20;5.23;;;4.70;;
1140;SDS011;559;48.628;8.924;2023-06-14T10:44:49;5.90;;;5.03;;
1140;SDS011;559;48.628;8.924;2023-06-14T10:47:22;5.60;;;5.10;;
1140;SDS011;559;48.628;8.924;2023-06-14T10:49:51;4.80;;;4.30;;
1140;SDS011;559;48.628;8.924;2023-06-14T10:52:24;10.83;;;5.67;;
1140;SDS011;559;48.628;8.924;2023-06-14T10:55:08;7.60;;;4.83;;
1140;SDS011;559;48.628;8.924;2023-06-14T10:57:38;5.30;;;4.75;;
1140;SDS011;559;48.628;8.924;2023-06-14T11:00:05;5.67;;;5.17;;
1140;SDS011;559;48.628;8.924;2023-06-14T11:02:52;6.23;;;4.10;;
1140;SDS011;559;48.628;8.924;2023-06-14T11:05:30;4.57;;;3.73;;
1140;SDS011;559;48.628;8.924;2023-06-14T11:44:48;6.50;;;4.10;;
1140;SDS011;559;48.628;8.924;2023-06-14T12:58:17;7.20;;;4.37;;
1140;SDS011;559;48.628;8.924;2023-06-14T13:01:23;5.63;;;4.30;;
1140;SDS011;559;48.628;8.924;2023-06-14T13:04:07;5.20;;;4.80;;
1140;SDS011;559;48.628;8.924;2023-06-14T13:07:40;4.90;;;4.13;;
1140;SDS011;559;48.628;8.924;2023-06-14T13:14:07;6.43;;;4.67;;
1140;SDS011;559;48.628;8.924;2023-06-14T13:16:51;5.43;;;4.90;;
1140;SDS011;559;48.628;8.924;2023-06-14T13:19:20;8.10;;;5.57;;
1140;SDS011;559;48.628;8.924;2023-06-14T13:21:47;4.87;;;4.30;;
1140;SDS011;559;48.628;8.924;2023-06-14T13:24:14;6.30;;;4.53;;
1140;SDS011;559;48.628;8.924;2023-06-14T13:26:42;8.70;;;5.00;;
1140;SDS011;559;48.628;8.924;2023-06-14T13:29:10;5.10;;;4.60;;
1140;SDS011;559;48.628;8.924;2023-06-14T13:34:18;5.93;;;4.40;;
1140;SDS011;559;48.628;8.924;2023-06-14T13:43:09;6.53;;;3.90;;
1140;SDS011;559;48.628;8.924;2023-06-14T13:45:49;4.10;;;3.80;;
1140;SDS011;559;48.628;8.924;2023-06-14T13:48:16;7.70;;;4.70;;
1140;SDS011;559;48.628;8.924;2023-06-14T13:51:17;5.13;;;3.83;;
1140;SDS011;559;48.628;8.924;2023-06-14T13:53:45;4.10;;;3.80;;
1140;SDS011;559;48.628;8.924;2023-06-14T13:56:20;6.60;;;4.03;;
1140;SDS011;559;48.628;8.924;2023-06-14T14:09:00;4.30;;;3.90;;
1140;SDS011;559;48.628;8.924;2023-06-14T14:11:27;5.70;;;4.60;;
1140;SDS011;559;48.628;8.924;2023-06-14T14:49:38;4.23;;;3.83;;
1140;SDS011;559;48.628;8.924;2023-06-14T14:52:53;4.27;;;3.97;;
1140;SDS011;559;48.628;8.924;2023-06-14T15:07:13;5.60;;;4.37;;
1140;SDS011;559;48.628;8.924;2023-06-14T15:09:40;4.20;;;3.40;;
1140;SDS011;559;48.628;8.924;2023-06-14T15:12:09;5.63;;;4.43;;
1140;SDS011;559;48.628;8.924;2023-06-14T15:14:36;3.97;;;3.60;;
1140;SDS011;559;48.628;8.924;2023-06-14T15:17:03;6.33;;;4.17;;
1140;SDS011;559;48.628;8.924;2023-06-14T15:19:30;5.67;;;4.17;;
1140;SDS011;559;48.628;8.924;2023-06-14T15:21:57;4.47;;;3.93;;
1140;SDS011;559;48.628;8.924;2023-06-14T15:24:24;4.67;;;4.27;;
1140;SDS011;559;48.628;8.924;2023-06-14T15:26:51;6.30;;;3.97;;
1140;SDS011;559;48.628;8.924;2023-06-14T15:29:17;4.87;;;4.40;;
1140;SDS011;559;48.628;8.924;2023-06-14T15:31:44;4.23;;;3.80;;
1140;SDS011;559;48.628;8.924;2023-06-14T15:34:12;4.37;;;3.70;;
1140;SDS011;559;48.628;8.924;2023-06-14T15:36:38;6.43;;;4.43;;
1140;SDS011;559;48.628;8.924;2023-06-14T15:39:06;4.40;;;3.80;;
1140;SDS011;559;48.628;8.924;2023-06-14T15:41:33;3.53;;;3.33;;
1140;SDS011;559;48.628;8.924;2023-06-14T15:43:59;4.10;;;3.80;;
1140;SDS011;559;48.628;8.924;2023-06-14T15:46:26;4.10;;;3.70;;
1140;SDS011;559;48.628;8.924;2023-06-14T15:48:52;4.50;;;4.10;;
1140;SDS011;559;48.628;8.924;2023-06-14T15:51:19;5.27;;;4.03;;
1140;SDS011;559;48.628;8.924;2023-06-14T15:53:45;4.50;;;4.10;;
1140;SDS011;559;48.628;8.924;2023-06-14T15:56:13;8.23;;;4.17;;
1140;SDS011;559;48.628;8.924;2023-06-14T15:58:40;4.70;;;3.80;;
1140;SDS011;559;48.628;8.924;2023-06-14T16:01:06;4.00;;;3.70;;
1140;SDS011;559;48.628;8.924;2023-06-14T16:03:33;4.33;;;4.03;;
1140;SDS011;559;48.628;8.924;2023-06-14T16:05:59;6.30;;;4.43;;
1140;SDS011;559;48.628;8.924;2023-06-14T16:08:26;5.20;;;3.63;;
1140;SDS011;559;48.628;8.924;2023-06-14T16:10:52;4.87;;;4.00;;
1140;SDS011;559;48.628;8.924;2023-06-14T16:13:20;4.53;;;4.13;;
1140;SDS011;559;48.628;8.924;2023-06-14T16:15:47;5.23;;;4.23;;
1140;SDS011;559;48.628;8.924;2023-06-14T16:18:14;4.27;;;3.90;;
1140;SDS011;559;48.628;8.924;2023-06-14T16:20:40;5.30;;;4.10;;
1140;SDS011;559;48.628;8.924;2023-06-14T16:23:07;4.47;;;4.17;;
1140;SDS011;559;48.628;8.924;2023-06-14T16:25:33;8.13;;;3.80;;
1140;SDS011;559;48.628;8.924;2023-06-14T16:28:00;4.73;;;4.33;;
1140;SDS011;559;48.628;8.924;2023-06-14T16:30:28;4.83;;;4.30;;
1140;SDS011;559;48.628;8.924;2023-06-14T16:32:55;4.70;;;4.30;;
1140;SDS011;559;48.628;8.924;2023-06-14T16:35:22;4.20;;;3.83;;
1140;SDS011;559;48.628;8.924;2023-06-14T16:37:48;6.23;;;4.50;;
1140;SDS011;559;48.628;8.924;2023-06-14T16:40:15;4.70;;;4.30;;
1140;SDS011;559;48.628;8.924;2023-06-14T16:42:43;4.70;;;4.30;;
1140;SDS011;559;48.628;8.924;2023-06-14T16:45:10;4.60;;;4.20;;
1140;SDS011;559;48.628;8.924;2023-06-14T16:47:38;4.03;;;3.70;;
1140;SDS011;559;48.628;8.924;2023-06-14T16:50:05;5.87;;;4.37;;
1140;SDS011;559;48.628;8.924;2023-06-14T16:52:32;4.10;;;3.80;;
1140;SDS011;559;48.628;8.924;2023-06-14T16:54:58;4.90;;;4.40;;
1140;SDS011;559;48.628;8.924;2023-06-14T16:57:25;4.20;;;3.80;;
1140;SDS011;559;48.628;8.924;2023-06-14T16:59:51;4.27;;;3.87;;
1140;SDS011;559;48.628;8.924;2023-06-14T17:02:18;4.33;;;4.00;;
1140;SDS011;559;48.628;8.924;2023-06-14T17:04:45;4.80;;;4.07;;
1140;SDS011;559;48.628;8.924;2023-06-14T17:07:12;4.57;;;4.03;;
1140;SDS011;559;48.628;8.924;2023-06-14T17:09:39;4.60;;;4.20;;
1140;SDS011;559;48.628;8.924;2023-06-14T17:15:09;4.50;;;4.10;;
1140;SDS011;559;48.628;8.924;2023-06-14T17:17:36;4.30;;;4.00;;
1140;SDS011;559;48.628;8.924;2023-06-14T17:20:10;6.60;;;4.63;;
1140;SDS011;559;48.628;8.924;2023-06-14T17:22:43;4.90;;;4.40;;
1140;SDS011;559;48.628;8.924;2023-06-14T17:25:22;4.17;;;3.87;;
1140;SDS011;559;48.628;8.924;2023-06-14T17:31:04;6.30;;;4.50;;
1140;SDS011;559;48.628;8.924;2023-06-14T17:33:34;4.80;;;4.30;;
1140;SDS011;559;48.628;8.924;2023-06-14T17:36:02;4.97;;;4.57;;
1140;SDS011;559;48.628;8.924;2023-06-14T17:41:33;7.23;;;3.87;;
1140;SDS011;559;48.628;8.924;2023-06-14T17:44:04;8.47;;;4.37;;
1140;SDS011;559;48.628;8.924;2023-06-14T17:46:34;4.50;;;4.10;;
1140;SDS011;559;48.628;8.924;2023-06-14T17:49:10;4.53;;;4.13;;
1140;SDS011;559;48.628;8.924;2023-06-14T17:51:41;3.70;;;3.37;;
1140;SDS011;559;48.628;8.924;2023-06-14T17:54:12;4.53;;;4.13;;
1140;SDS011;559;48.628;8.924;2023-06-14T17:56:41;3.70;;;3.40;;
1140;SDS011;559;48.628;8.924;2023-06-14T17:59:20;3.67;;;3.37;;
1140;SDS011;559;48.628;8.924;2023-06-14T18:01:53;7.00;;;3.67;;
1140;SDS011;559;48.628;8.924;2023-06-14T18:04:22;3.97;;;3.60;;
1140;SDS011;559;48.628;8.924;2023-06-14T18:06:52;4.00;;;3.60;;
1140;SDS011;559;48.628;8.924;2023-06-14T18:09:18;4.83;;;4.13;;
1140;SDS011;559;48.628;8.924;2023-06-14T18:11:53;6.10;;;4.00;;
1140;SDS011;559;48.628;8.924;2023-06-14T18:14:21;4.20;;;4.00;;
1140;SDS011;559;48.628;8.924;2023-06-14T18:16:55;5.65;;;4.25;;
1140;SDS011;559;48.628;8.924;2023-06-14T18:26:23;4.70;;;3.73;;
1140;SDS011;559;48.628;8.924;2023-06-14T18:28:59;6.60;;;3.30;;
1140;SDS011;559;48.628;8.924;2023-06-14T18:31:33;4.37;;;4.00;;
1140;SDS011;559;48.628;8.924;2023-06-14T18:33:59;5.67;;;4.60;;
1140;SDS011;559;48.628;8.924;2023-06-14T18:36:26;4.30;;;3.80;;
1140;SDS011;559;48.628;8.924;2023-06-14T18:38:52;7.63;;;4.27;;